Time;durP1;ratioP1;P1;durP2;ratioP2;P2;SDS_P1;SDS_P2;PMS_P1;PMS_P2;Temp;Humidity;BMP_temperature;BMP_pressure;BME280_temperature;BME280_humidity;BME280_pressure;Samples;Min_cycle;Max_cycle;Signal;HPM_P1;HPM_P2
2022/07/20 00:01:30;;;;;;;1.83;1.50;;;;;;;;;;5043245;28;20033;-83
2022/07/20 00:03:55;;;;;;;3.45;1.45;;;;;;;;;;5044206;28;20374;-84
2022/07/20 00:06:20;;;;;;;3.92;1.70;;;;;;;;;;5041092;28;20029;-84
2022/07/20 00:11:30;;;;;;;2.63;1.50;;;;;;;;;;5042806;28;20087;-84
2022/07/20 00:13:59;;;;;;;2.80;1.52;;;;;;;;;;5041728;28;20473;-84
2022/07/20 00:16:26;;;;;;;3.30;1.30;;;;;;;;;;5042463;28;20112;-86
2022/07/20 00:18:52;;;;;;;2.47;1.50;;;;;;;;;;5043068;28;20029;-87
2022/07/20 00:21:17;;;;;;;1.67;1.40;;;;;;;;;;5049881;28;20079;-87
2022/07/20 00:23:43;;;;;;;3.45;1.52;;;;;;;;;;5046048;28;20488;-85
2022/07/20 00:26:09;;;;;;;2.60;1.60;;;;;;;;;;5040906;28;20022;-85
2022/07/20 00:28:34;;;;;;;1.77;1.50;;;;;;;;;;5042293;28;20029;-85
2022/07/20 00:31:00;;;;;;;4.50;1.58;;;;;;;;;;5040255;28;20029;-84
2022/07/20 00:33:25;;;;;;;2.28;1.73;;;;;;;;;;5038413;28;20034;-84
2022/07/20 00:35:51;;;;;;;1.75;1.35;;;;;;;;;;5041259;28;20029;-86
2022/07/20 00:38:17;;;;;;;2.35;1.25;;;;;;;;;;5035890;28;20047;-86
2022/07/20 00:40:42;;;;;;;1.88;1.40;;;;;;;;;;5043094;28;20082;-86
2022/07/20 00:43:08;;;;;;;2.17;1.10;;;;;;;;;;5040845;28;20479;-85
2022/07/20 00:45:33;;;;;;;2.20;1.60;;;;;;;;;;5040093;28;20108;-83
2022/07/20 00:47:59;;;;;;;4.72;1.60;;;;;;;;;;5041434;28;20102;-85
2022/07/20 00:50:24;;;;;;;3.53;1.67;;;;;;;;;;5040881;28;20029;-88
2022/07/20 00:52:50;;;;;;;2.70;1.63;;;;;;;;;;5043177;28;20040;-84
2022/07/20 00:55:16;;;;;;;6.38;1.85;;;;;;;;;;5043706;28;20029;-85
2022/07/20 00:57:42;;;;;;;4.22;1.90;;;;;;;;;;5041095;28;20033;-84
2022/07/20 01:00:08;;;;;;;3.75;2.10;;;;;;;;;;5045318;28;20029;-86
2022/07/20 01:02:34;;;;;;;3.58;1.70;;;;;;;;;;5043039;28;20032;-84
2022/07/20 01:04:59;;;;;;;2.70;1.90;;;;;;;;;;5037558;28;20116;-85
2022/07/20 01:07:25;;;;;;;3.92;1.98;;;;;;;;;;5046179;28;20124;-84
2022/07/20 01:09:51;;;;;;;3.15;1.77;;;;;;;;;;5042770;28;20507;-85
2022/07/20 01:12:17;;;;;;;2.65;1.80;;;;;;;;;;5045286;28;20052;-83
2022/07/20 01:14:42;;;;;;;2.42;1.75;;;;;;;;;;5043943;28;20087;-85
2022/07/20 01:17:08;;;;;;;2.10;1.33;;;;;;;;;;5041133;28;20021;-86
2022/07/20 01:19:34;;;;;;;3.28;1.73;;;;;;;;;;5041472;28;21317;-86
2022/07/20 01:21:59;;;;;;;2.30;1.70;;;;;;;;;;5039757;28;20424;-85
2022/07/20 01:24:25;;;;;;;1.83;1.50;;;;;;;;;;5040751;28;20033;-85
2022/07/20 01:26:50;;;;;;;3.17;1.83;;;;;;;;;;5033658;28;20025;-86
2022/07/20 01:29:16;;;;;;;2.42;1.55;;;;;;;;;;5045795;28;20111;-86
2022/07/20 01:31:41;;;;;;;2.88;1.73;;;;;;;;;;5037847;28;20075;-86
2022/07/20 01:34:07;;;;;;;2.40;1.70;;;;;;;;;;5042125;28;20025;-86
2022/07/20 01:36:33;;;;;;;2.15;1.60;;;;;;;;;;5041026;28;20489;-85
2022/07/20 01:38:58;;;;;;;2.78;1.67;;;;;;;;;;5040277;28;20041;-86
2022/07/20 01:41:24;;;;;;;2.22;1.63;;;;;;;;;;5044457;28;20033;-86
2022/07/20 01:43:49;;;;;;;2.33;1.73;;;;;;;;;;5049270;28;20029;-86
2022/07/20 01:46:15;;;;;;;2.75;1.92;;;;;;;;;;5045344;28;20489;-87
2022/07/20 01:48:41;;;;;;;2.72;1.40;;;;;;;;;;5042993;28;20033;-85
2022/07/20 01:51:06;;;;;;;3.70;2.08;;;;;;;;;;5041923;28;20021;-83
2022/07/20 01:53:32;;;;;;;3.33;1.83;;;;;;;;;;5036204;28;20060;-85
2022/07/20 01:55:58;;;;;;;4.07;2.13;;;;;;;;;;5042895;28;20037;-85
2022/07/20 01:58:24;;;;;;;2.40;1.73;;;;;;;;;;5046050;28;20416;-84
2022/07/20 02:00:49;;;;;;;2.70;2.00;;;;;;;;;;5041443;28;20032;-85
2022/07/20 02:03:15;;;;;;;2.03;1.55;;;;;;;;;;5036092;28;20082;-86
2022/07/20 02:05:41;;;;;;;6.55;2.40;;;;;;;;;;5043904;28;20052;-85
2022/07/20 02:08:06;;;;;;;2.65;1.90;;;;;;;;;;5038949;28;20017;-86
2022/07/20 02:10:32;;;;;;;2.33;1.83;;;;;;;;;;5035169;28;20053;-84
2022/07/20 02:12:57;;;;;;;3.35;2.00;;;;;;;;;;5040104;28;20408;-85
2022/07/20 02:18:10;;;;;;;2.50;1.75;;;;;;;;;;5044157;28;20063;-85
2022/07/20 02:20:36;;;;;;;4.13;2.10;;;;;;;;;;5036268;28;20127;-86
2022/07/20 02:23:04;;;;;;;3.50;2.20;;;;;;;;;;5039540;28;20041;-86
2022/07/20 02:25:30;;;;;;;5.95;2.53;;;;;;;;;;5041707;28;20040;-85
2022/07/20 02:27:55;;;;;;;3.67;2.15;;;;;;;;;;5037493;28;20022;-86
2022/07/20 02:30:21;;;;;;;2.92;2.03;;;;;;;;;;5045248;28;20386;-84
2022/07/20 02:32:46;;;;;;;4.35;2.00;;;;;;;;;;5036014;28;20111;-84
2022/07/20 02:35:12;;;;;;;3.55;2.40;;;;;;;;;;5036833;28;20036;-85
2022/07/20 02:37:37;;;;;;;3.45;2.55;;;;;;;;;;5040612;28;20033;-84
2022/07/20 02:40:03;;;;;;;4.35;2.38;;;;;;;;;;5038904;28;20026;-84
2022/07/20 02:42:29;;;;;;;3.75;2.45;;;;;;;;;;5035768;28;20025;-84
2022/07/20 02:44:54;;;;;;;6.22;2.53;;;;;;;;;;5034618;28;20389;-85
2022/07/20 02:47:20;;;;;;;3.72;2.50;;;;;;;;;;5041771;28;20469;-87
2022/07/20 02:49:45;;;;;;;4.72;2.20;;;;;;;;;;5034373;28;20537;-86
2022/07/20 02:52:11;;;;;;;3.72;2.00;;;;;;;;;;5040778;28;20103;-84
2022/07/20 02:54:36;;;;;;;3.28;2.22;;;;;;;;;;5041809;28;20029;-86
2022/07/20 02:57:01;;;;;;;3.10;2.22;;;;;;;;;;5040527;28;20022;-85
2022/07/20 02:59:27;;;;;;;3.55;2.00;;;;;;;;;;5041158;28;20037;-87
2022/07/20 03:01:52;;;;;;;4.35;2.35;;;;;;;;;;5040890;28;20526;-89
2022/07/20 03:04:18;;;;;;;3.20;2.25;;;;;;;;;;5041174;28;20059;-85
2022/07/20 03:06:43;;;;;;;3.65;2.25;;;;;;;;;;5038818;28;20021;-85
2022/07/20 03:09:08;;;;;;;4.38;2.35;;;;;;;;;;5035006;28;20032;-86
2022/07/20 03:11:34;;;;;;;3.00;2.20;;;;;;;;;;5037449;28;20048;-85
2022/07/20 03:13:59;;;;;;;3.17;2.00;;;;;;;;;;5043992;28;20492;-84
2022/07/20 03:16:25;;;;;;;3.00;2.30;;;;;;;;;;5044178;28;20476;-85
2022/07/20 03:18:50;;;;;;;5.10;1.90;;;;;;;;;;5041336;28;20033;-84
2022/07/20 03:21:16;;;;;;;4.57;2.47;;;;;;;;;;5039673;28;20041;-88
2022/07/20 03:23:41;;;;;;;3.95;2.05;;;;;;;;;;5045119;28;20026;-85
2022/07/20 03:26:07;;;;;;;2.92;2.00;;;;;;;;;;5043606;28;20079;-84
2022/07/20 03:28:32;;;;;;;3.50;2.10;;;;;;;;;;5039144;28;20026;-84
2022/07/20 03:30:57;;;;;;;2.78;2.17;;;;;;;;;;5034051;28;20025;-86
2022/07/20 03:33:23;;;;;;;3.28;2.03;;;;;;;;;;5037001;28;20040;-84
2022/07/20 03:35:48;;;;;;;3.05;2.17;;;;;;;;;;5040529;28;20060;-85
2022/07/20 03:38:14;;;;;;;4.00;2.28;;;;;;;;;;5042471;28;20068;-85
2022/07/20 03:40:39;;;;;;;3.80;2.15;;;;;;;;;;5038578;28;20053;-86
2022/07/20 03:43:05;;;;;;;3.72;2.22;;;;;;;;;;5038727;28;20469;-85
2022/07/20 03:45:31;;;;;;;4.65;2.50;;;;;;;;;;5037452;28;20029;-85
2022/07/20 03:47:56;;;;;;;3.47;2.42;;;;;;;;;;5040509;28;20043;-85
2022/07/20 03:50:22;;;;;;;3.40;2.05;;;;;;;;;;5042793;28;20025;-85
2022/07/20 03:52:47;;;;;;;6.85;3.13;;;;;;;;;;5038989;28;20025;-84
2022/07/20 03:55:12;;;;;;;3.80;2.65;;;;;;;;;;5037305;28;20025;-85
2022/07/20 03:57:38;;;;;;;5.13;2.53;;;;;;;;;;5042202;28;20492;-84
2022/07/20 04:00:04;;;;;;;4.15;2.35;;;;;;;;;;5042438;28;20465;-87
2022/07/20 04:02:30;;;;;;;3.70;2.35;;;;;;;;;;5045651;28;20385;-84
2022/07/20 04:04:55;;;;;;;2.83;2.03;;;;;;;;;;5042430;28;20021;-84
2022/07/20 04:07:21;;;;;;;4.15;2.58;;;;;;;;;;5049286;28;20023;-85
2022/07/20 04:09:46;;;;;;;4.00;2.38;;;;;;;;;;5045413;28;20029;-84
2022/07/20 04:12:18;;;;;;;3.38;2.60;;;;;;;;;;5043492;28;20057;-85
2022/07/20 04:14:45;;;;;;;4.13;2.50;;;;;;;;;;5042026;28;20413;-85
2022/07/20 04:17:12;;;;;;;4.18;2.83;;;;;;;;;;5049342;28;20039;-86
2022/07/20 04:19:37;;;;;;;2.67;2.42;;;;;;;;;;5050671;28;20045;-86
2022/07/20 04:22:03;;;;;;;4.47;3.13;;;;;;;;;;5044064;28;20018;-85
2022/07/20 04:24:28;;;;;;;6.55;2.80;;;;;;;;;;5038254;28;20044;-87
2022/07/20 04:26:54;;;;;;;4.97;2.90;;;;;;;;;;5044746;28;20432;-87
2022/07/20 04:29:21;;;;;;;6.05;2.45;;;;;;;;;;5046060;28;20139;-86
2022/07/20 04:31:46;;;;;;;5.20;2.90;;;;;;;;;;5040985;28;20032;-86
2022/07/20 04:34:12;;;;;;;4.88;2.45;;;;;;;;;;5041581;28;20029;-85
2022/07/20 04:36:37;;;;;;;5.93;2.50;;;;;;;;;;5043640;28;20033;-85
2022/07/20 04:39:02;;;;;;;4.20;2.63;;;;;;;;;;5041065;28;20022;-85
2022/07/20 04:41:28;;;;;;;4.00;2.50;;;;;;;;;;5046437;28;20538;-84
2022/07/20 04:44:10;;;;;;;6.88;2.72;;;;;;;;;;5043513;28;20045;-84
2022/07/20 04:46:35;;;;;;;5.40;2.70;;;;;;;;;;5043700;28;20032;-84
2022/07/20 04:49:01;;;;;;;3.78;2.78;;;;;;;;;;5045717;28;20024;-86
2022/07/20 04:51:26;;;;;;;5.07;2.75;;;;;;;;;;5040312;28;20037;-85
2022/07/20 04:53:51;;;;;;;5.85;2.47;;;;;;;;;;5045620;28;20027;-87
2022/07/20 04:56:18;;;;;;;3.75;2.80;;;;;;;;;;5040269;28;20030;-86
2022/07/20 04:58:47;;;;;;;3.38;2.50;;;;;;;;;;5045681;28;20029;-83
2022/07/20 05:01:13;;;;;;;5.47;2.88;;;;;;;;;;5040256;28;20021;-83
2022/07/20 05:03:38;;;;;;;5.05;2.50;;;;;;;;;;5042419;28;20528;-84
2022/07/20 05:06:04;;;;;;;7.35;3.17;;;;;;;;;;5046877;28;20053;-84
2022/07/20 05:08:29;;;;;;;6.80;2.88;;;;;;;;;;5040436;28;20075;-85
2022/07/20 05:10:54;;;;;;;4.38;2.75;;;;;;;;;;5038939;28;20026;-85
2022/07/20 05:13:20;;;;;;;3.97;2.63;;;;;;;;;;5046467;28;20079;-83
2022/07/20 05:15:45;;;;;;;4.35;2.97;;;;;;;;;;5041607;28;20465;-84
2022/07/20 05:18:10;;;;;;;4.18;2.95;;;;;;;;;;5045442;28;20052;-86
2022/07/20 05:20:36;;;;;;;5.20;3.08;;;;;;;;;;5044489;28;20119;-85
2022/07/20 05:23:01;;;;;;;3.85;2.95;;;;;;;;;;5045954;28;20020;-84
2022/07/20 05:25:27;;;;;;;6.70;3.60;;;;;;;;;;5035583;28;20032;-85
2022/07/20 05:27:52;;;;;;;6.55;3.20;;;;;;;;;;5040781;28;20071;-85
2022/07/20 05:30:17;;;;;;;6.18;3.28;;;;;;;;;;5037475;28;20155;-85
2022/07/20 05:32:43;;;;;;;6.20;3.42;;;;;;;;;;5036730;28;20100;-83
2022/07/20 05:35:08;;;;;;;7.20;2.97;;;;;;;;;;5038156;28;20040;-84
2022/07/20 05:37:34;;;;;;;4.90;2.83;;;;;;;;;;5038279;28;20033;-85
2022/07/20 05:40:00;;;;;;;7.80;3.20;;;;;;;;;;5043252;28;20418;-85
2022/07/20 05:42:25;;;;;;;8.18;3.65;;;;;;;;;;5041641;28;20485;-83
2022/07/20 05:44:50;;;;;;;7.80;3.40;;;;;;;;;;5038013;28;20052;-86
2022/07/20 05:47:17;;;;;;;6.93;3.22;;;;;;;;;;5040065;28;20021;-84
2022/07/20 05:49:44;;;;;;;6.40;3.13;;;;;;;;;;5038852;28;20461;-84
2022/07/20 05:52:09;;;;;;;6.50;3.40;;;;;;;;;;5034651;28;20028;-82
2022/07/20 05:54:35;;;;;;;5.78;3.33;;;;;;;;;;5036785;28;20037;-83
2022/07/20 05:57:00;;;;;;;6.10;3.47;;;;;;;;;;5042955;28;20017;-84
2022/07/20 05:59:26;;;;;;;6.43;3.05;;;;;;;;;;5041322;28;20026;-82
2022/07/20 06:01:51;;;;;;;8.63;3.67;;;;;;;;;;5036223;28;20466;-80
2022/07/20 06:04:16;;;;;;;6.88;3.17;;;;;;;;;;5044021;28;20056;-81
2022/07/20 06:06:42;;;;;;;6.18;3.53;;;;;;;;;;5034393;28;20049;-83
2022/07/20 06:09:08;;;;;;;7.03;3.60;;;;;;;;;;5037112;28;20033;-81
2022/07/20 06:11:34;;;;;;;4.95;3.05;;;;;;;;;;5043791;28;20100;-82
2022/07/20 06:14:00;;;;;;;5.65;3.38;;;;;;;;;;5039421;28;20025;-83
2022/07/20 06:16:27;;;;;;;8.32;3.15;;;;;;;;;;5043086;28;20037;-84
2022/07/20 06:18:52;;;;;;;10.38;3.53;;;;;;;;;;5042477;28;20065;-82
2022/07/20 06:21:18;;;;;;;6.72;3.70;;;;;;;;;;5045771;28;20501;-84
2022/07/20 06:23:43;;;;;;;6.75;3.20;;;;;;;;;;5045308;28;20469;-83
2022/07/20 06:26:09;;;;;;;4.18;3.20;;;;;;;;;;5048289;28;20025;-84
2022/07/20 06:28:35;;;;;;;10.90;3.83;;;;;;;;;;5048745;28;20036;-83
2022/07/20 06:31:00;;;;;;;6.47;3.53;;;;;;;;;;5037491;28;20030;-81
2022/07/20 06:33:26;;;;;;;6.40;3.35;;;;;;;;;;5037331;28;20095;-83
2022/07/20 06:35:52;;;;;;;6.40;3.15;;;;;;;;;;5042943;28;20025;-82
2022/07/20 06:38:17;;;;;;;5.70;3.33;;;;;;;;;;5032412;28;20025;-81
2022/07/20 06:40:43;;;;;;;8.98;4.00;;;;;;;;;;5042082;28;20033;-84
2022/07/20 06:43:09;;;;;;;4.40;3.13;;;;;;;;;;5043879;28;20032;-86
2022/07/20 06:45:34;;;;;;;7.50;3.17;;;;;;;;;;5039605;28;20040;-85
2022/07/20 06:48:00;;;;;;;14.35;3.60;;;;;;;;;;5040955;28;20121;-84
2022/07/20 06:50:25;;;;;;;4.30;3.05;;;;;;;;;;5039041;28;20132;-83
2022/07/20 06:52:50;;;;;;;6.10;2.65;;;;;;;;;;5041299;28;20029;-82
2022/07/20 06:55:16;;;;;;;14.20;3.47;;;;;;;;;;5037709;28;20033;-83
2022/07/20 06:57:43;;;;;;;4.50;2.92;;;;;;;;;;5040147;28;20042;-82
2022/07/20 07:00:10;;;;;;;8.02;3.35;;;;;;;;;;5040612;28;20025;-82
2022/07/20 07:02:35;;;;;;;11.63;3.65;;;;;;;;;;5043511;28;20109;-84
2022/07/20 07:05:01;;;;;;;4.72;2.97;;;;;;;;;;5035816;28;20108;-82
2022/07/20 07:07:26;;;;;;;9.05;3.30;;;;;;;;;;5041581;28;20112;-83
2022/07/20 07:09:52;;;;;;;6.47;3.30;;;;;;;;;;5040327;28;20032;-84
2022/07/20 07:12:17;;;;;;;8.13;3.80;;;;;;;;;;5042784;28;20032;-85
2022/07/20 07:14:43;;;;;;;7.38;3.47;;;;;;;;;;5038775;28;20476;-82
2022/07/20 07:17:09;;;;;;;7.88;3.10;;;;;;;;;;5034468;28;20021;-85
2022/07/20 07:19:35;;;;;;;5.55;3.00;;;;;;;;;;5043490;28;20496;-87
2022/07/20 07:22:00;;;;;;;11.13;3.47;;;;;;;;;;5048031;28;20477;-84
2022/07/20 07:24:26;;;;;;;6.43;3.45;;;;;;;;;;5040831;28;20423;-86
2022/07/20 07:26:51;;;;;;;6.47;2.97;;;;;;;;;;5043144;28;20025;-82
2022/07/20 07:29:19;;;;;;;7.40;3.28;;;;;;;;;;5047938;28;20024;-81
2022/07/20 07:31:45;;;;;;;6.13;3.22;;;;;;;;;;5047845;28;20770;-84
2022/07/20 07:34:10;;;;;;;6.55;3.20;;;;;;;;;;5044437;28;20017;-81
2022/07/20 07:36:35;;;;;;;8.55;3.47;;;;;;;;;;5044084;28;20095;-85
2022/07/20 07:39:01;;;;;;;7.68;2.90;;;;;;;;;;5047136;28;20060;-82
2022/07/20 07:41:26;;;;;;;6.32;3.00;;;;;;;;;;5043213;28;20038;-83
2022/07/20 07:43:52;;;;;;;8.55;3.00;;;;;;;;;;5051148;28;20057;-82
2022/07/20 07:46:17;;;;;;;5.63;2.78;;;;;;;;;;5043913;28;20025;-81
2022/07/20 07:48:43;;;;;;;6.40;3.03;;;;;;;;;;5042968;28;20064;-83
2022/07/20 07:51:08;;;;;;;3.80;2.65;;;;;;;;;;5042666;28;20036;-83
2022/07/20 07:53:33;;;;;;;6.78;2.95;;;;;;;;;;5045407;28;20065;-85
2022/07/20 07:55:59;;;;;;;7.53;2.80;;;;;;;;;;5038105;28;20427;-84
2022/07/20 07:58:24;;;;;;;9.65;2.42;;;;;;;;;;5041283;28;20112;-82
2022/07/20 08:01:08;;;;;;;5.88;2.65;;;;;;;;;;5039566;28;20029;-84
2022/07/20 08:03:34;;;;;;;2.50;2.10;;;;;;;;;;5038579;28;20029;-84
2022/07/20 08:06:00;;;;;;;7.55;2.40;;;;;;;;;;5036083;28;20022;-84
2022/07/20 08:08:25;;;;;;;5.45;2.15;;;;;;;;;;5041938;28;20045;-86
2022/07/20 08:10:54;;;;;;;4.82;2.13;;;;;;;;;;5046194;28;20038;-82
2022/07/20 08:13:19;;;;;;;4.90;2.20;;;;;;;;;;5043038;28;20434;-84
2022/07/20 08:15:45;;;;;;;4.45;2.00;;;;;;;;;;5039171;28;20152;-83
2022/07/20 08:18:10;;;;;;;5.43;2.20;;;;;;;;;;5043900;28;20104;-85
2022/07/20 08:20:36;;;;;;;2.83;1.70;;;;;;;;;;5038908;28;20049;-85
2022/07/20 08:23:02;;;;;;;2.42;1.58;;;;;;;;;;5040755;28;20578;-84
2022/07/20 08:25:28;;;;;;;2.60;1.60;;;;;;;;;;5036925;28;20108;-85
2022/07/20 08:27:53;;;;;;;1.90;1.50;;;;;;;;;;5036759;28;20022;-87
2022/07/20 08:30:19;;;;;;;5.13;1.60;;;;;;;;;;5042114;28;20473;-85
2022/07/20 08:32:44;;;;;;;2.03;1.50;;;;;;;;;;5040137;28;20117;-91
2022/07/20 08:35:10;;;;;;;4.07;1.60;;;;;;;;;;5042636;28;20032;-86
2022/07/20 08:37:39;;;;;;;5.40;1.63;;;;;;;;;;5041956;28;20041;-89
2022/07/20 08:40:08;;;;;;;10.45;2.95;;;;;;;;;;5041155;28;20095;-87
2022/07/20 08:42:33;;;;;;;2.50;1.42;;;;;;;;;;5051658;28;20041;-83
2022/07/20 08:44:59;;;;;;;2.35;1.50;;;;;;;;;;5040177;28;20025;-83
2022/07/20 08:47:27;;;;;;;3.67;1.70;;;;;;;;;;5042789;28;20377;-82
2022/07/20 08:49:53;;;;;;;7.43;1.53;;;;;;;;;;5040720;28;20079;-83
2022/07/20 08:52:18;;;;;;;6.43;1.88;;;;;;;;;;5044437;28;20033;-83
2022/07/20 08:54:45;;;;;;;2.85;1.80;;;;;;;;;;5042451;28;20108;-83
2022/07/20 08:57:12;;;;;;;3.35;1.35;;;;;;;;;;5041179;28;20021;-84
2022/07/20 08:59:37;;;;;;;2.70;1.80;;;;;;;;;;5041269;28;20154;-87
2022/07/20 09:02:05;;;;;;;6.20;1.88;;;;;;;;;;5041629;28;20104;-85
2022/07/20 09:04:31;;;;;;;5.72;1.83;;;;;;;;;;5043243;28;20060;-83
2022/07/20 09:06:57;;;;;;;2.50;1.60;;;;;;;;;;5040779;28;20021;-83
2022/07/20 09:09:23;;;;;;;2.50;1.42;;;;;;;;;;5042048;28;20033;-84
2022/07/20 09:11:50;;;;;;;2.85;1.38;;;;;;;;;;5043076;28;20366;-83
2022/07/20 09:14:49;;;;;;;2.58;1.50;;;;;;;;;;5040450;28;20030;-85
2022/07/20 09:17:20;;;;;;;3.75;1.48;;;;;;;;;;5043043;28;20030;-85
2022/07/20 09:20:02;;;;;;;3.10;1.40;;;;;;;;;;5045774;28;20049;-86
2022/07/20 09:22:38;;;;;;;2.85;1.33;;;;;;;;;;5033720;28;20033;-82
2022/07/20 09:25:10;;;;;;;4.45;1.80;;;;;;;;;;5038942;28;20044;-85
2022/07/20 09:27:36;;;;;;;4.07;2.05;;;;;;;;;;5038801;28;20037;-82
2022/07/20 09:30:09;;;;;;;1.98;1.40;;;;;;;;;;5038873;28;20491;-82
2022/07/20 09:32:55;;;;;;;1.45;1.23;;;;;;;;;;5047280;28;20105;-83
2022/07/20 09:35:32;;;;;;;4.03;1.50;;;;;;;;;;5040712;28;20057;-83
2022/07/20 09:38:03;;;;;;;2.78;1.27;;;;;;;;;;5033006;28;20118;-83
2022/07/20 09:40:40;;;;;;;1.67;1.05;;;;;;;;;;5037174;28;20124;-82
2022/07/20 09:43:05;;;;;;;1.25;1.10;;;;;;;;;;5040109;28;20083;-85
2022/07/20 09:45:32;;;;;;;2.58;1.30;;;;;;;;;;5043786;28;20385;-85
2022/07/20 09:48:03;;;;;;;1.63;1.23;;;;;;;;;;5040723;28;20033;-84
2022/07/20 09:50:33;;;;;;;3.75;1.33;;;;;;;;;;5033209;28;20099;-84
2022/07/20 09:52:59;;;;;;;3.75;1.30;;;;;;;;;;5037216;28;20389;-86
2022/07/20 09:55:25;;;;;;;2.80;1.60;;;;;;;;;;5037902;28;20032;-85
2022/07/20 09:57:52;;;;;;;8.73;2.17;;;;;;;;;;5041100;28;20504;-84
2022/07/20 10:00:24;;;;;;;2.65;1.13;;;;;;;;;;5037617;28;20488;-85
2022/07/20 10:02:53;;;;;;;2.72;1.67;;;;;;;;;;5038526;28;20037;-91
2022/07/20 10:05:21;;;;;;;5.28;1.60;;;;;;;;;;5038891;28;20032;-85
2022/07/20 10:07:46;;;;;;;2.65;1.40;;;;;;;;;;5032629;28;20044;-84
2022/07/20 10:10:12;;;;;;;2.15;1.30;;;;;;;;;;5034099;28;20083;-86
2022/07/20 10:12:38;;;;;;;2.08;1.30;;;;;;;;;;5037539;28;20521;-85
2022/07/20 10:15:16;;;;;;;4.30;1.50;;;;;;;;;;5045090;28;20036;-88
2022/07/20 10:17:43;;;;;;;2.45;1.50;;;;;;;;;;5036880;28;20385;-87
2022/07/20 10:20:30;;;;;;;3.75;1.17;;;;;;;;;;5035081;28;20528;-87
2022/07/20 10:23:14;;;;;;;2.15;1.33;;;;;;;;;;5039254;28;20384;-86
2022/07/20 10:25:39;;;;;;;2.33;1.30;;;;;;;;;;5037357;28;20679;-85
2022/07/20 10:28:24;;;;;;;2.85;1.48;;;;;;;;;;5037262;28;20100;-85
2022/07/20 10:30:55;;;;;;;3.38;1.42;;;;;;;;;;5036208;28;20033;-88
2022/07/20 10:33:21;;;;;;;2.28;1.40;;;;;;;;;;5039621;28;20041;-88
2022/07/20 10:35:48;;;;;;;2.60;1.73;;;;;;;;;;5033961;28;20029;-83
2022/07/20 10:38:23;;;;;;;4.43;1.58;;;;;;;;;;5038472;28;20032;-87
2022/07/20 10:44:22;;;;;;;4.40;1.27;;;;;;;;;;5034334;28;20101;-87
2022/07/20 10:46:50;;;;;;;2.92;1.38;;;;;;;;;;5037320;28;20553;-88
2022/07/20 10:49:16;;;;;;;1.63;1.23;;;;;;;;;;5026966;28;20029;-86
2022/07/20 10:51:42;;;;;;;2.13;1.20;;;;;;;;;;5042565;28;20041;-84
2022/07/20 10:54:33;;;;;;;1.48;1.30;;;;;;;;;;5035194;28;20025;-86
2022/07/20 10:57:00;;;;;;;2.88;1.42;;;;;;;;;;5034566;28;20304;-87
2022/07/20 10:59:26;;;;;;;3.53;1.63;;;;;;;;;;5030659;28;20124;-87
2022/07/20 11:01:52;;;;;;;2.72;1.30;;;;;;;;;;5027763;28;20179;-87
2022/07/20 11:04:19;;;;;;;3.63;1.60;;;;;;;;;;5027843;28;20025;-86
2022/07/20 11:06:44;;;;;;;2.15;1.05;;;;;;;;;;5032209;28;20037;-85
2022/07/20 11:09:11;;;;;;;1.90;1.33;;;;;;;;;;5036471;28;20029;-85
2022/07/20 11:11:37;;;;;;;1.25;1.08;;;;;;;;;;5036749;28;20021;-87
2022/07/20 11:14:05;;;;;;;4.18;1.33;;;;;;;;;;5027122;28;20063;-86
2022/07/20 11:16:32;;;;;;;2.42;1.17;;;;;;;;;;5031070;28;20040;-87
2022/07/20 11:18:59;;;;;;;3.50;1.48;;;;;;;;;;5030019;28;20021;-85
2022/07/20 11:21:38;;;;;;;3.15;1.25;;;;;;;;;;5033188;28;20068;-85
2022/07/20 11:24:19;;;;;;;2.92;1.38;;;;;;;;;;5030488;28;20026;-89
2022/07/20 11:26:44;;;;;;;2.03;1.60;;;;;;;;;;5030694;28;20446;-85
2022/07/20 11:29:13;;;;;;;1.67;1.20;;;;;;;;;;5041522;28;20096;-84
2022/07/20 11:31:39;;;;;;;3.45;1.48;;;;;;;;;;5034025;28;20621;-87
2022/07/20 11:34:05;;;;;;;3.50;1.55;;;;;;;;;;5038735;28;20053;-85
2022/07/20 11:36:32;;;;;;;2.08;1.50;;;;;;;;;;5039355;28;20152;-87
2022/07/20 11:39:00;;;;;;;4.55;1.70;;;;;;;;;;5034971;28;20484;-85
2022/07/20 11:41:29;;;;;;;3.42;1.33;;;;;;;;;;5041528;28;20029;-85
2022/07/20 11:43:54;;;;;;;2.58;1.65;;;;;;;;;;5034067;28;20100;-83
2022/07/20 11:46:26;;;;;;;3.38;1.50;;;;;;;;;;5028364;28;20066;-85
2022/07/20 11:49:02;;;;;;;2.15;1.10;;;;;;;;;;5036202;28;20017;-82
2022/07/20 11:51:30;;;;;;;2.35;1.38;;;;;;;;;;5031459;28;20041;-85
2022/07/20 11:53:56;;;;;;;2.22;1.50;;;;;;;;;;5030860;28;20021;-86
2022/07/20 11:56:25;;;;;;;3.63;1.33;;;;;;;;;;5038033;28;20084;-85
2022/07/20 11:58:52;;;;;;;4.40;1.60;;;;;;;;;;5037856;28;20036;-84
2022/07/20 12:01:23;;;;;;;2.03;1.10;;;;;;;;;;5035828;28;20041;-85
2022/07/20 12:03:55;;;;;;;1.65;1.30;;;;;;;;;;5043954;28;20351;-88
2022/07/20 12:06:21;;;;;;;3.53;1.70;;;;;;;;;;5035457;28;20029;-86
2022/07/20 12:09:11;;;;;;;3.90;1.40;;;;;;;;;;5034857;28;20026;-83
2022/07/20 12:12:08;;;;;;;2.45;1.13;;;;;;;;;;5040599;28;20036;-83
2022/07/20 12:14:36;;;;;;;3.33;1.33;;;;;;;;;;5032378;28;20096;-85
2022/07/20 12:17:20;;;;;;;4.13;1.42;;;;;;;;;;5033231;28;20112;-82
2022/07/20 12:19:49;;;;;;;7.60;1.70;;;;;;;;;;5033410;28;20443;-87
2022/07/20 12:22:22;;;;;;;3.80;1.40;;;;;;;;;;5025239;28;20037;-86
2022/07/20 12:24:56;;;;;;;2.55;1.80;;;;;;;;;;5034877;28;20388;-84
2022/07/20 12:27:24;;;;;;;1.92;1.52;;;;;;;;;;5036397;28;20083;-82
2022/07/20 12:29:49;;;;;;;1.38;1.20;;;;;;;;;;5030029;28;20044;-84
2022/07/20 12:32:17;;;;;;;3.85;1.33;;;;;;;;;;5031661;28;20044;-82
2022/07/20 12:34:54;;;;;;;6.57;1.73;;;;;;;;;;5034272;28;20048;-87
2022/07/20 12:37:21;;;;;;;2.67;1.25;;;;;;;;;;5030532;28;20044;-85
2022/07/20 12:39:53;;;;;;;2.35;1.23;;;;;;;;;;5036932;28;20017;-86
2022/07/20 12:42:23;;;;;;;2.80;1.42;;;;;;;;;;5037202;28;20028;-86
2022/07/20 12:45:00;;;;;;;2.45;1.65;;;;;;;;;;5033127;28;20025;-85
2022/07/20 12:47:26;;;;;;;3.05;1.35;;;;;;;;;;5038056;28;20047;-88
2022/07/20 12:49:52;;;;;;;5.97;1.70;;;;;;;;;;5038715;28;20026;-88
2022/07/20 12:52:17;;;;;;;3.00;1.38;;;;;;;;;;5037859;28;20021;-87
2022/07/20 12:54:43;;;;;;;2.40;1.30;;;;;;;;;;5036061;28;20442;-86
2022/07/20 12:57:08;;;;;;;1.55;1.15;;;;;;;;;;5035897;28;20112;-86
2022/07/20 12:59:34;;;;;;;1.50;1.30;;;;;;;;;;5037896;28;20111;-89
2022/07/20 13:01:59;;;;;;;3.50;1.60;;;;;;;;;;5040002;28;20117;-87
2022/07/20 13:04:26;;;;;;;3.05;1.52;;;;;;;;;;5043224;28;20538;-86
2022/07/20 13:06:53;;;;;;;5.95;2.40;;;;;;;;;;5041388;28;20029;-87
2022/07/20 13:09:21;;;;;;;2.03;1.30;;;;;;;;;;5042919;28;20029;-85
2022/07/20 13:11:47;;;;;;;2.77;1.30;;;;;;;;;;5039640;28;20087;-88
2022/07/20 13:14:17;;;;;;;1.65;1.20;;;;;;;;;;5041414;28;20108;-88
2022/07/20 13:16:44;;;;;;;2.58;1.40;;;;;;;;;;5034635;28;20032;-88
2022/07/20 13:19:10;;;;;;;3.47;1.40;;;;;;;;;;5044419;28;20079;-85
2022/07/20 13:21:35;;;;;;;2.00;1.25;;;;;;;;;;5045267;28;20029;-85
2022/07/20 13:24:01;;;;;;;3.47;1.50;;;;;;;;;;5042615;28;20025;-86
2022/07/20 13:26:27;;;;;;;2.22;1.38;;;;;;;;;;5031231;28;20037;-86
2022/07/20 13:28:53;;;;;;;1.60;1.23;;;;;;;;;;5035880;28;20029;-87
2022/07/20 13:31:20;;;;;;;2.95;1.52;;;;;;;;;;5037747;28;20494;-84
2022/07/20 13:33:46;;;;;;;2.88;1.20;;;;;;;;;;5040694;28;20029;-85
2022/07/20 13:36:11;;;;;;;1.60;1.10;;;;;;;;;;5040921;28;20032;-86
2022/07/20 13:38:37;;;;;;;4.28;1.40;;;;;;;;;;5040904;28;20029;-85
2022/07/20 13:41:04;;;;;;;3.65;1.50;;;;;;;;;;5039599;28;20369;-85
2022/07/20 13:43:30;;;;;;;5.65;1.58;;;;;;;;;;5039636;28;20470;-87
2022/07/20 13:45:56;;;;;;;1.95;1.25;;;;;;;;;;5040897;28;20025;-84
2022/07/20 13:48:21;;;;;;;2.00;1.17;;;;;;;;;;5041113;28;20105;-85
2022/07/20 13:50:48;;;;;;;2.28;1.40;;;;;;;;;;5044476;28;20021;-88
2022/07/20 13:53:15;;;;;;;3.65;1.30;;;;;;;;;;5041545;28;20052;-84
2022/07/20 13:55:41;;;;;;;1.83;1.30;;;;;;;;;;5040321;28;20038;-83
2022/07/20 13:58:07;;;;;;;14.85;2.30;;;;;;;;;;5032920;28;20021;-84
2022/07/20 14:00:33;;;;;;;2.17;1.40;;;;;;;;;;5030158;28;20095;-83
2022/07/20 14:02:58;;;;;;;5.80;1.40;;;;;;;;;;5029575;28;20116;-86
2022/07/20 14:05:24;;;;;;;3.88;1.40;;;;;;;;;;5032725;28;20118;-84
2022/07/20 14:07:49;;;;;;;4.28;1.17;;;;;;;;;;5034291;28;20053;-87
2022/07/20 14:10:15;;;;;;;3.53;1.50;;;;;;;;;;5037999;28;20029;-86
2022/07/20 14:12:40;;;;;;;1.77;1.48;;;;;;;;;;5033853;28;20037;-87
2022/07/20 14:15:07;;;;;;;7.75;1.92;;;;;;;;;;5030443;28;20066;-84
2022/07/20 14:17:36;;;;;;;4.35;1.60;;;;;;;;;;5035127;28;20017;-87
2022/07/20 14:20:01;;;;;;;3.97;1.40;;;;;;;;;;5037211;28;20501;-88
2022/07/20 14:22:27;;;;;;;3.45;1.30;;;;;;;;;;5038252;28;20109;-84
2022/07/20 14:24:52;;;;;;;2.80;1.50;;;;;;;;;;5037488;28;20025;-83
2022/07/20 14:27:18;;;;;;;1.42;1.15;;;;;;;;;;5039965;28;20075;-83
2022/07/20 14:29:44;;;;;;;3.13;1.17;;;;;;;;;;5037569;28;20492;-86
2022/07/20 14:32:09;;;;;;;2.38;1.10;;;;;;;;;;5038273;28;20037;-83
2022/07/20 14:34:35;;;;;;;2.90;1.23;;;;;;;;;;5041370;28;20021;-85
2022/07/20 14:37:00;;;;;;;2.63;1.30;;;;;;;;;;5045993;28;20481;-85
2022/07/20 14:39:25;;;;;;;1.70;1.35;;;;;;;;;;5041482;28;20055;-88
2022/07/20 14:41:51;;;;;;;6.65;1.90;;;;;;;;;;5034391;28;20469;-84
2022/07/20 14:44:16;;;;;;;6.20;2.03;;;;;;;;;;5034714;28;20017;-84
2022/07/20 14:46:42;;;;;;;6.15;1.70;;;;;;;;;;5036037;28;20025;-86
2022/07/20 14:49:08;;;;;;;3.45;1.88;;;;;;;;;;5036203;28;20025;-85
2022/07/20 14:51:34;;;;;;;5.60;1.50;;;;;;;;;;5031430;28;20122;-86